Ship Status Report: callsign OS8154

sailwx.info

Track history (hours):
 
Tides and Currents Weather Stations Pressure Air Temp Water Temp Dewpoint Dewpoint Depression Visibility Wind Speed Wind Dir Waves Ship Positions

Callsign OS8154 (name unknown)

Last reported at 2016-Oct-14 18:00 UTC. Time now 2016-Dec-11 00:19 UTC.
Position N 68°42' W 052°48'.
Warning: this ship's position is 57 days out of date.

Barometer 1008.2 mb
Air temperature -0.8 ° C

Date/timePositionNaut miles runAvg speedWind from/ knotsBaromVisibWave heightAir tempDewpointWater temp
2016-Oct-14 18:00N 68°42' W 052°48'0 0.0 1008.2 -0.8
2016-Oct-14 17:00N 68°42' W 052°48'0 0.0 1008.1 -0.8
2016-Oct-14 16:00N 68°42' W 052°48'0 0.0 1007.9 -1.0
2016-Oct-14 15:00N 68°42' W 052°48'0 0.0 1007.7 -1.5
2016-Oct-14 14:00N 68°42' W 052°48'0 0.0 1007.6 -2.3
2016-Oct-14 13:00N 68°42' W 052°48'0 0.0 1006.8 -2.8
2016-Oct-14 11:00N 68°42' W 052°48'0 0.0 1006.6 -4.0
2016-Oct-14 10:00N 68°42' W 052°48'0 0.0 1006.8 -3.5
2016-Oct-14 09:00N 68°42' W 052°48'0 0.0 1006.6 -2.8
2016-Oct-14 08:00N 68°42' W 052°48'0 0.0 1006.7 -1.5
2016-Oct-14 07:00N 68°42' W 052°48'0 0.0 1006.7 -1.5
2016-Oct-14 05:00N 68°42' W 052°48'0 0.0 1006.4 -1.0
2016-Oct-14 02:00N 68°42' W 052°48'0 0.0 1006.4 -0.8
2016-Oct-14 00:00N 68°42' W 052°48'0 0.0 1006.4 -1.0
2016-Oct-13 22:00N 68°42' W 052°48'0 0.0 1006.9 -1.0
2016-Oct-13 20:00N 68°42' W 052°48'0 0.0 1008.3 -1.0
2016-Oct-13 18:00N 68°42' W 052°48'0 0.0 1009.6 -1.5
2016-Oct-13 17:00N 68°42' W 052°48'0 0.0 1010.2 -0.8
2016-Oct-13 16:00N 68°42' W 052°48'0 0.0 1010.4 -0.0
2016-Oct-13 15:00N 68°42' W 052°48'0 0.0 1010.8 0.8
2016-Oct-13 14:00N 68°42' W 052°48'0 0.0 1011.5 1.8
2016-Oct-13 13:00N 68°42' W 052°48'0 0.0 1012.4 -0.0
2016-Oct-13 12:00N 68°42' W 052°48'0 0.0 1012.4 -1.3
2016-Oct-13 11:00N 68°42' W 052°48'0 0.0 1012.9 -1.5
2016-Oct-13 10:00N 68°42' W 052°48'0 0.0 1013.5 -0.8
2016-Oct-13 08:00N 68°42' W 052°48'0 0.0 1014.5 -1.5
2016-Oct-13 06:00N 68°42' W 052°48'0 0.0 1015.1 -1.5
2016-Oct-13 05:00N 68°42' W 052°48'0 0.0 1015.4 -1.5
2016-Oct-13 04:00N 68°42' W 052°48'0 0.0 1015.5 -1.8
2016-Oct-13 02:00N 68°42' W 052°48'0 0.0 1014.9 -1.5
2016-Oct-13 01:00N 68°42' W 052°48'0 0.0 1014.8 -0.5
2016-Oct-12 23:00N 68°42' W 052°48'0 0.0 1014.0 -0.3
2016-Oct-12 22:00N 68°42' W 052°48'0 0.0 1013.6 0.3
2016-Oct-12 21:00N 68°42' W 052°48'0 0.0 1013.2 -0.0
2016-Oct-12 20:00N 68°42' W 052°48'0 0.0 1012.4 -0.3
2016-Oct-12 19:00N 68°42' W 052°48'0 0.0 1011.4 0.5
2016-Oct-12 18:00N 68°42' W 052°48'0 0.0 1010.4 1.3
2016-Oct-12 17:00N 68°42' W 052°48'0 0.0 1009.8 1.3
2016-Oct-12 16:00N 68°42' W 052°48'0 0.0 1009.2 1.3
2016-Oct-12 15:00N 68°42' W 052°48'0 0.0 1008.8 0.8
2016-Oct-12 14:00N 68°42' W 052°48'0 0.0 1008.6 0.8
2016-Oct-12 13:00N 68°42' W 052°48'0 0.0 1008.4 0.8
2016-Oct-12 12:00N 68°42' W 052°48'0 0.0 1008.4 0.5
2016-Oct-12 11:00N 68°42' W 052°48'0 0.0 1008.3 0.5
2016-Oct-12 10:00N 68°42' W 052°48'0 0.0 1008.2 0.3
2016-Oct-12 09:00N 68°42' W 052°48'0 0.0 1008.4 -0.0
2016-Oct-12 07:00N 68°42' W 052°48'0 0.0 1008.5 0.3
2016-Oct-12 06:00N 68°42' W 052°48'0 0.0 1008.8 -0.0
2016-Oct-12 00:00N 68°42' W 052°48'0 0.0 1012.0 0.5
2016-Oct-11 23:00N 68°42' W 052°48'0 0.0 1012.8 0.3
2016-Oct-11 22:00N 68°42' W 052°48'0 0.0 1013.2 0.8
2016-Oct-11 21:00N 68°42' W 052°48'0 0.0 1013.7 0.8
2016-Oct-11 20:00N 68°42' W 052°48'0 0.0 1014.2 1.3
2016-Oct-11 19:00N 68°42' W 052°48'0 0.0 1014.7 1.5
2016-Oct-11 17:00N 68°42' W 052°48'0 0.0 1015.5 1.8
2016-Oct-11 15:00N 68°42' W 052°48'0 0.0 1016.4 1.8
2016-Oct-11 14:00N 68°42' W 052°48'0 0.0 1016.8 2.0
2016-Oct-11 13:00N 68°42' W 052°48'0 0.0 1017.1 1.3
2016-Oct-11 12:00N 68°42' W 052°48'0 0.0 1017.1 0.8
2016-Oct-11 11:00N 68°42' W 052°48'0 0.0 1017.0 0.8
2016-Oct-11 10:00N 68°42' W 052°48'0 0.0 1016.8 0.8
2016-Oct-11 09:00N 68°42' W 052°48'0 0.0 1016.5 0.8
2016-Oct-11 08:00N 68°42' W 052°48'0 0.0 1016.1 0.8
2016-Oct-11 07:00N 68°42' W 052°48'0 0.0 1015.6 0.5
2016-Oct-11 05:00N 68°42' W 052°48'0 0.0 1013.6 1.0
2016-Oct-11 02:00N 68°42' W 052°48'0 0.0 1011.4 1.0
2016-Oct-11 00:00N 68°42' W 052°48'0 0.0 1010.2 1.3
2016-Oct-10 22:00N 68°42' W 052°48'0 0.0 1009.1 1.8
2016-Oct-10 21:00N 68°42' W 052°48'0 0.0 1008.4 1.8
2016-Oct-10 20:00N 68°42' W 052°48'0 0.0 1007.8 1.3
2016-Oct-10 19:00N 68°42' W 052°48'0 0.0 1007.1 1.5
2016-Oct-10 18:00N 68°42' W 052°48'0 0.0 1006.2 2.0
2016-Oct-10 17:00N 68°42' W 052°48'0 0.0 1005.7 2.0
2016-Oct-10 16:00N 68°42' W 052°48'0 0.0 1005.5 2.3
2016-Oct-10 14:00N 68°42' W 052°48'0 0.0 1005.6 2.3
2016-Oct-10 13:00N 68°42' W 052°48'0 0.0 1005.5 2.0
2016-Oct-10 12:00N 68°42' W 052°48'0 0.0 1005.3 2.0
2016-Oct-10 11:00N 68°42' W 052°48'0 0.0 1005.0 1.8
2016-Oct-10 09:00N 68°42' W 052°48'0 0.0 1004.0 1.8
2016-Oct-10 07:00N 68°42' W 052°48'0 0.0 1003.0 2.0
2016-Oct-10 01:00N 68°42' W 052°48'0 0.0 1004.3 2.0
2016-Oct-09 23:00N 68°42' W 052°48'0 0.0 1005.9 1.5
2016-Oct-09 22:00N 68°42' W 052°48'0 0.0 1006.5 1.5
2016-Oct-09 21:00N 68°42' W 052°48'0 0.0 1007.3 1.5
2016-Oct-09 20:00N 68°42' W 052°48'0 0.0 1008.0 1.5
2016-Oct-09 19:00N 68°42' W 052°48'0 0.0 1008.7 1.5
2016-Oct-09 18:00N 68°42' W 052°48'0 0.0 1009.2 1.8
2016-Oct-09 17:00N 68°42' W 052°48'0 0.0 1009.6 3.3
2016-Oct-09 16:00N 68°42' W 052°48'0 0.0 1010.1 4.0
2016-Oct-09 15:00N 68°42' W 052°48'0 0.0 1010.5 2.3
2016-Oct-09 14:00N 68°42' W 052°48'0 0.0 1010.8 1.8
2016-Oct-09 13:00N 68°42' W 052°48'0 0.0 1011.0 1.8
2016-Oct-09 12:00N 68°42' W 052°48'0 0.0 1010.9 1.8
2016-Oct-09 11:00N 68°42' W 052°48'0 0.0 1010.4 1.3
2016-Oct-09 10:00N 68°42' W 052°48'0 0.0 1009.9 1.3
2016-Oct-09 09:00N 68°42' W 052°48'0 0.0 1009.6 1.3
2016-Oct-09 08:00N 68°42' W 052°48'0 0.0 1008.9 1.3
2016-Oct-09 05:00N 68°42' W 052°48'0 0.0 1007.2 1.0
2016-Oct-09 04:00N 68°42' W 052°48'0 0.0 1006.5 1.0
2016-Oct-09 03:00N 68°42' W 052°48'0 0.0 1006.1 0.8
2016-Oct-09 01:00N 68°42' W 052°48'0 0.0 1005.1 1.0
2016-Oct-08 23:00N 68°42' W 052°48'0 0.0 1004.5 2.0
2016-Oct-08 22:00N 68°42' W 052°48'0 0.0 1004.3 1.8
2016-Oct-08 16:00N 68°42' W 052°48'0 0.0 1006.2 3.3
2016-Oct-08 15:00N 68°42' W 052°48'0 0.0 1006.8 2.3
2016-Oct-08 14:00N 68°42' W 052°48'0 0.0 1007.4 3.5
2016-Oct-08 13:00N 68°42' W 052°48'2 1.1 1008.2 1.8
2016-Oct-08 11:00N 68°42' W 052°54'0 0.0 1009.3 1.0
2016-Oct-08 10:00N 68°42' W 052°54'0 0.0 1009.9 0.3
2016-Oct-08 09:00N 68°42' W 052°54'0 0.0 1010.4 1.3
2016-Oct-08 08:00N 68°42' W 052°54'0 0.0 1010.7 1.0
2016-Oct-08 07:00N 68°42' W 052°54'0 0.0 1011.2 1.5
2016-Oct-08 06:00N 68°42' W 052°54'0 0.0 1011.6 1.5
2016-Oct-08 02:00N 68°42' W 052°54'0 0.0 1013.6 1.3
2016-Oct-08 00:15N 68°42' W 052°54'0 0.0 1014.5 1.0
2016-Oct-07 23:00N 68°42' W 052°54'0 0.0 1015.2 1.8
2016-Oct-07 22:00N 68°42' W 052°54'0 0.0 1015.8 2.0
2016-Oct-07 21:00N 68°42' W 052°54'0 0.0 1016.2 2.3
2016-Oct-07 20:00N 68°42' W 052°54'0 0.0 1016.4 2.3
2016-Oct-07 18:00N 68°42' W 052°54'0 0.0 1016.2 3.3
2016-Oct-07 17:00N 68°42' W 052°54'0 0.0 1016.2 3.5
2016-Oct-07 16:00N 68°42' W 052°54'0 0.0 1015.9 2.8
2016-Oct-07 15:00N 68°42' W 052°54'0 0.0 1015.6 3.0
2016-Oct-07 14:00N 68°42' W 052°54'0 0.0 1015.2 3.0
2016-Oct-07 13:00N 68°42' W 052°54'0 0.0 1014.7 3.0
2016-Oct-07 12:00N 68°42' W 052°54'0 0.0 1013.9 2.8
2016-Oct-07 11:00N 68°42' W 052°54'0 0.0 1013.0 2.3
2016-Oct-07 10:00N 68°42' W 052°54'0 0.0 1011.8 2.3
2016-Oct-07 07:00N 68°42' W 052°54'0 0.0 1008.2 2.3
2016-Oct-07 02:00N 68°42' W 052°54'0 0.0 1001.3 0.8
2016-Oct-07 00:00N 68°42' W 052°54'0 0.0 1000.1 0.8
2016-Oct-06 23:00N 68°42' W 052°54'0 0.0 1000.1 0.8
2016-Oct-06 22:00N 68°42' W 052°54'0 0.0 999.8 0.8
2016-Oct-06 21:00N 68°42' W 052°54'0 0.0 999.6 1.0
2016-Oct-06 19:00N 68°42' W 052°54'0 0.0 998.6 2.3
2016-Oct-06 18:00N 68°42' W 052°54'0 0.0 997.9 1.8
2016-Oct-06 17:00N 68°42' W 052°54'0 0.0 997.8 1.3
2016-Oct-06 16:00N 68°42' W 052°54'0 0.0 997.5 1.0
2016-Oct-06 15:00N 68°42' W 052°54'0 0.0 997.5 1.8
2016-Oct-06 14:00N 68°42' W 052°54'0 0.0 997.2 1.3
2016-Oct-06 13:00N 68°42' W 052°54'0 0.0 996.8 3.3
2016-Oct-06 12:00N 68°42' W 052°54'0 0.0 996.2 4.5
2016-Oct-06 11:00N 68°42' W 052°54'0 0.0 995.4 3.8
2016-Oct-06 10:00N 68°42' W 052°54'0 0.0 994.8 3.5
2016-Oct-06 09:00N 68°42' W 052°54'0 0.0 994.1 3.0
2016-Oct-06 08:00N 68°42' W 052°54'0 0.0 993.2 3.3
2016-Oct-06 07:00N 68°42' W 052°54'0 0.0 992.6 4.0
2016-Oct-06 06:00N 68°42' W 052°54'0 0.0 991.8 4.0
2016-Oct-06 04:00N 68°42' W 052°54'0 0.0 990.7 4.0
2016-Oct-06 03:00N 68°42' W 052°54'0 0.0 990.2 4.0
2016-Oct-06 02:00N 68°42' W 052°54'0 0.0 990.0 4.0
2016-Oct-06 00:00N 68°42' W 052°54'0 0.0 990.0 4.8
2016-Oct-05 22:00N 68°42' W 052°54'0 0.0 990.8 5.0
2016-Oct-05 20:00N 68°42' W 052°54'0 0.0 991.5 4.8
2016-Oct-05 19:00N 68°42' W 052°54'0 0.0 992.2 4.5
2016-Oct-05 18:00N 68°42' W 052°54'0 0.0 992.7 5.3
2016-Oct-05 17:00N 68°42' W 052°54'0 0.0 993.5 4.5
2016-Oct-05 16:00N 68°42' W 052°54'0 0.0 994.2 5.8
2016-Oct-05 15:00N 68°42' W 052°54'0 0.0 994.6 6.5
2016-Oct-05 14:00N 68°42' W 052°54'0 0.0 995.4 5.8
2016-Oct-05 13:00N 68°42' W 052°54'0 0.0 995.8 6.0
2016-Oct-05 12:00N 68°42' W 052°54'0 0.0 996.2 6.8
2016-Oct-05 10:00N 68°42' W 052°54'0 0.0 996.5 3.5
2016-Oct-05 09:00N 68°42' W 052°54'0 0.0 996.6 3.3
2016-Oct-05 08:00N 68°42' W 052°54'0 0.0 996.6 3.0
2016-Oct-05 07:00N 68°42' W 052°54'0 0.0 996.5 3.5
2016-Oct-05 06:00N 68°42' W 052°54'0 0.0 996.2 3.3
2016-Oct-05 05:00N 68°42' W 052°54'0 0.0 996.1 1.3
2016-Oct-05 03:00N 68°42' W 052°54'0 0.0 995.9 1.0
2016-Oct-04 23:00N 68°42' W 052°54'0 0.0 994.5 2.5
2016-Oct-04 22:00N 68°42' W 052°54'0 0.0 994.4 2.5
2016-Oct-04 21:00N 68°42' W 052°54'6 6.4 994.3 4.3
2016-Oct-04 20:00N 68°48' W 053°00'6 6.0 994.1 3.8
2016-Oct-04 19:00N 68°54' W 053°00'1312.7 994.3 5.3
2016-Oct-04 18:00N 69°06' W 053°12'   994.2 5.5
Track history (hours):
 
Tides and Currents Weather Stations Pressure Air Temp Water Temp Dewpoint Dewpoint Depression Visibility Wind Speed Wind Dir Waves Ship Positions

Callsign OS8154 (name unknown)

Last reported at 2016-Oct-14 18:00 UTC. Time now 2016-Dec-11 00:19 UTC.
Position N 68°42' W 052°48'.
Warning: this ship's position is 57 days out of date.

Barometer 1008.2 mb
Air temperature -0.8 ° C

Date/timePositionNaut miles runAvg speedWind from/ knotsBaromVisibWave heightAir tempDewpointWater temp
2016-Oct-14 18:00N 68°42' W 052°48'0 0.0 1008.2 -0.8
2016-Oct-14 17:00N 68°42' W 052°48'0 0.0 1008.1 -0.8
2016-Oct-14 16:00N 68°42' W 052°48'0 0.0 1007.9 -1.0
2016-Oct-14 15:00N 68°42' W 052°48'0 0.0 1007.7 -1.5
2016-Oct-14 14:00N 68°42' W 052°48'0 0.0 1007.6 -2.3
2016-Oct-14 13:00N 68°42' W 052°48'0 0.0 1006.8 -2.8
2016-Oct-14 11:00N 68°42' W 052°48'0 0.0 1006.6 -4.0
2016-Oct-14 10:00N 68°42' W 052°48'0 0.0 1006.8 -3.5
2016-Oct-14 09:00N 68°42' W 052°48'0 0.0 1006.6 -2.8
2016-Oct-14 08:00N 68°42' W 052°48'0 0.0 1006.7 -1.5
2016-Oct-14 07:00N 68°42' W 052°48'0 0.0 1006.7 -1.5
2016-Oct-14 05:00N 68°42' W 052°48'0 0.0 1006.4 -1.0
2016-Oct-14 02:00N 68°42' W 052°48'0 0.0 1006.4 -0.8
2016-Oct-14 00:00N 68°42' W 052°48'0 0.0 1006.4 -1.0
2016-Oct-13 22:00N 68°42' W 052°48'0 0.0 1006.9 -1.0
2016-Oct-13 20:00N 68°42' W 052°48'0 0.0 1008.3 -1.0
2016-Oct-13 18:00N 68°42' W 052°48'0 0.0 1009.6 -1.5
2016-Oct-13 17:00N 68°42' W 052°48'0 0.0 1010.2 -0.8
2016-Oct-13 16:00N 68°42' W 052°48'0 0.0 1010.4 -0.0
2016-Oct-13 15:00N 68°42' W 052°48'0 0.0 1010.8 0.8
2016-Oct-13 14:00N 68°42' W 052°48'0 0.0 1011.5 1.8
2016-Oct-13 13:00N 68°42' W 052°48'0 0.0 1012.4 -0.0
2016-Oct-13 12:00N 68°42' W 052°48'0 0.0 1012.4 -1.3
2016-Oct-13 11:00N 68°42' W 052°48'0 0.0 1012.9 -1.5
2016-Oct-13 10:00N 68°42' W 052°48'0 0.0 1013.5 -0.8
2016-Oct-13 08:00N 68°42' W 052°48'0 0.0 1014.5 -1.5
2016-Oct-13 06:00N 68°42' W 052°48'0 0.0 1015.1 -1.5
2016-Oct-13 05:00N 68°42' W 052°48'0 0.0 1015.4 -1.5
2016-Oct-13 04:00N 68°42' W 052°48'0 0.0 1015.5 -1.8
2016-Oct-13 02:00N 68°42' W 052°48'0 0.0 1014.9 -1.5
2016-Oct-13 01:00N 68°42' W 052°48'0 0.0 1014.8 -0.5
2016-Oct-12 23:00N 68°42' W 052°48'0 0.0 1014.0 -0.3
2016-Oct-12 22:00N 68°42' W 052°48'0 0.0 1013.6 0.3
2016-Oct-12 21:00N 68°42' W 052°48'0 0.0 1013.2 -0.0
2016-Oct-12 20:00N 68°42' W 052°48'0 0.0 1012.4 -0.3
2016-Oct-12 19:00N 68°42' W 052°48'0 0.0 1011.4 0.5
2016-Oct-12 18:00N 68°42' W 052°48'0 0.0 1010.4 1.3
2016-Oct-12 17:00N 68°42' W 052°48'0 0.0 1009.8 1.3
2016-Oct-12 16:00N 68°42' W 052°48'0 0.0 1009.2 1.3
2016-Oct-12 15:00N 68°42' W 052°48'0 0.0 1008.8 0.8
2016-Oct-12 14:00N 68°42' W 052°48'0 0.0 1008.6 0.8
2016-Oct-12 13:00N 68°42' W 052°48'0 0.0 1008.4 0.8
2016-Oct-12 12:00N 68°42' W 052°48'0 0.0 1008.4 0.5
2016-Oct-12 11:00N 68°42' W 052°48'0 0.0 1008.3 0.5
2016-Oct-12 10:00N 68°42' W 052°48'0 0.0 1008.2 0.3
2016-Oct-12 09:00N 68°42' W 052°48'0 0.0 1008.4 -0.0
2016-Oct-12 07:00N 68°42' W 052°48'0 0.0 1008.5 0.3
2016-Oct-12 06:00N 68°42' W 052°48'0 0.0 1008.8 -0.0
2016-Oct-12 00:00N 68°42' W 052°48'0 0.0 1012.0 0.5
2016-Oct-11 23:00N 68°42' W 052°48'0 0.0 1012.8 0.3
2016-Oct-11 22:00N 68°42' W 052°48'0 0.0 1013.2 0.8
2016-Oct-11 21:00N 68°42' W 052°48'0 0.0 1013.7 0.8
2016-Oct-11 20:00N 68°42' W 052°48'0 0.0 1014.2 1.3
2016-Oct-11 19:00N 68°42' W 052°48'0 0.0 1014.7 1.5
2016-Oct-11 17:00N 68°42' W 052°48'0 0.0 1015.5 1.8
2016-Oct-11 15:00N 68°42' W 052°48'0 0.0 1016.4 1.8
2016-Oct-11 14:00N 68°42' W 052°48'0 0.0 1016.8 2.0
2016-Oct-11 13:00N 68°42' W 052°48'0 0.0 1017.1 1.3
2016-Oct-11 12:00N 68°42' W 052°48'0 0.0 1017.1 0.8
2016-Oct-11 11:00N 68°42' W 052°48'0 0.0 1017.0 0.8
2016-Oct-11 10:00N 68°42' W 052°48'0 0.0 1016.8 0.8
2016-Oct-11 09:00N 68°42' W 052°48'0 0.0 1016.5 0.8
2016-Oct-11 08:00N 68°42' W 052°48'0 0.0 1016.1 0.8
2016-Oct-11 07:00N 68°42' W 052°48'0 0.0 1015.6 0.5
2016-Oct-11 05:00N 68°42' W 052°48'0 0.0 1013.6 1.0
2016-Oct-11 02:00N 68°42' W 052°48'0 0.0 1011.4 1.0
2016-Oct-11 00:00N 68°42' W 052°48'0 0.0 1010.2 1.3
2016-Oct-10 22:00N 68°42' W 052°48'0 0.0 1009.1 1.8
2016-Oct-10 21:00N 68°42' W 052°48'0 0.0 1008.4 1.8
2016-Oct-10 20:00N 68°42' W 052°48'0 0.0 1007.8 1.3
2016-Oct-10 19:00N 68°42' W 052°48'0 0.0 1007.1 1.5
2016-Oct-10 18:00N 68°42' W 052°48'0 0.0 1006.2 2.0
2016-Oct-10 17:00N 68°42' W 052°48'0 0.0 1005.7 2.0
2016-Oct-10 16:00N 68°42' W 052°48'0 0.0 1005.5 2.3
2016-Oct-10 14:00N 68°42' W 052°48'0 0.0 1005.6 2.3
2016-Oct-10 13:00N 68°42' W 052°48'0 0.0 1005.5 2.0
2016-Oct-10 12:00N 68°42' W 052°48'0 0.0 1005.3 2.0
2016-Oct-10 11:00N 68°42' W 052°48'0 0.0 1005.0 1.8
2016-Oct-10 09:00N 68°42' W 052°48'0 0.0 1004.0 1.8
2016-Oct-10 07:00N 68°42' W 052°48'0 0.0 1003.0 2.0
2016-Oct-10 01:00N 68°42' W 052°48'0 0.0 1004.3 2.0
2016-Oct-09 23:00N 68°42' W 052°48'0 0.0 1005.9 1.5
2016-Oct-09 22:00N 68°42' W 052°48'0 0.0 1006.5 1.5
2016-Oct-09 21:00N 68°42' W 052°48'0 0.0 1007.3 1.5
2016-Oct-09 20:00N 68°42' W 052°48'0 0.0 1008.0 1.5
2016-Oct-09 19:00N 68°42' W 052°48'0 0.0 1008.7 1.5
2016-Oct-09 18:00N 68°42' W 052°48'0 0.0 1009.2 1.8
2016-Oct-09 17:00N 68°42' W 052°48'0 0.0 1009.6 3.3
2016-Oct-09 16:00N 68°42' W 052°48'0 0.0 1010.1 4.0
2016-Oct-09 15:00N 68°42' W 052°48'0 0.0 1010.5 2.3
2016-Oct-09 14:00N 68°42' W 052°48'0 0.0 1010.8 1.8
2016-Oct-09 13:00N 68°42' W 052°48'0 0.0 1011.0 1.8
2016-Oct-09 12:00N 68°42' W 052°48'0 0.0 1010.9 1.8
2016-Oct-09 11:00N 68°42' W 052°48'0 0.0 1010.4 1.3
2016-Oct-09 10:00N 68°42' W 052°48'0 0.0 1009.9 1.3
2016-Oct-09 09:00N 68°42' W 052°48'0 0.0 1009.6 1.3
2016-Oct-09 08:00N 68°42' W 052°48'0 0.0 1008.9 1.3
2016-Oct-09 05:00N 68°42' W 052°48'0 0.0 1007.2 1.0
2016-Oct-09 04:00N 68°42' W 052°48'0 0.0 1006.5 1.0
2016-Oct-09 03:00N 68°42' W 052°48'0 0.0 1006.1 0.8
2016-Oct-09 01:00N 68°42' W 052°48'0 0.0 1005.1 1.0
2016-Oct-08 23:00N 68°42' W 052°48'0 0.0 1004.5 2.0
2016-Oct-08 22:00N 68°42' W 052°48'0 0.0 1004.3 1.8
2016-Oct-08 16:00N 68°42' W 052°48'0 0.0 1006.2 3.3
2016-Oct-08 15:00N 68°42' W 052°48'0 0.0 1006.8 2.3
2016-Oct-08 14:00N 68°42' W 052°48'0 0.0 1007.4 3.5
2016-Oct-08 13:00N 68°42' W 052°48'2 1.1 1008.2 1.8
2016-Oct-08 11:00N 68°42' W 052°54'0 0.0 1009.3 1.0
2016-Oct-08 10:00N 68°42' W 052°54'0 0.0 1009.9 0.3
2016-Oct-08 09:00N 68°42' W 052°54'0 0.0 1010.4 1.3
2016-Oct-08 08:00N 68°42' W 052°54'0 0.0 1010.7 1.0
2016-Oct-08 07:00N 68°42' W 052°54'0 0.0 1011.2 1.5
2016-Oct-08 06:00N 68°42' W 052°54'0 0.0 1011.6 1.5
2016-Oct-08 02:00N 68°42' W 052°54'0 0.0 1013.6 1.3
2016-Oct-08 00:15N 68°42' W 052°54'0 0.0 1014.5 1.0
2016-Oct-07 23:00N 68°42' W 052°54'0 0.0 1015.2 1.8
2016-Oct-07 22:00N 68°42' W 052°54'0 0.0 1015.8 2.0
2016-Oct-07 21:00N 68°42' W 052°54'0 0.0 1016.2 2.3
2016-Oct-07 20:00N 68°42' W 052°54'0 0.0 1016.4 2.3
2016-Oct-07 18:00N 68°42' W 052°54'0 0.0 1016.2 3.3
2016-Oct-07 17:00N 68°42' W 052°54'0 0.0 1016.2 3.5
2016-Oct-07 16:00N 68°42' W 052°54'0 0.0 1015.9 2.8
2016-Oct-07 15:00N 68°42' W 052°54'0 0.0 1015.6 3.0
2016-Oct-07 14:00N 68°42' W 052°54'0 0.0 1015.2 3.0
2016-Oct-07 13:00N 68°42' W 052°54'0 0.0 1014.7 3.0
2016-Oct-07 12:00N 68°42' W 052°54'0 0.0 1013.9 2.8
2016-Oct-07 11:00N 68°42' W 052°54'0 0.0 1013.0 2.3
2016-Oct-07 10:00N 68°42' W 052°54'0 0.0 1011.8 2.3
2016-Oct-07 07:00N 68°42' W 052°54'0 0.0 1008.2 2.3
2016-Oct-07 02:00N 68°42' W 052°54'0 0.0 1001.3 0.8
2016-Oct-07 00:00N 68°42' W 052°54'0 0.0 1000.1 0.8
2016-Oct-06 23:00N 68°42' W 052°54'0 0.0 1000.1 0.8
2016-Oct-06 22:00N 68°42' W 052°54'0 0.0 999.8 0.8
2016-Oct-06 21:00N 68°42' W 052°54'0 0.0 999.6 1.0
2016-Oct-06 19:00N 68°42' W 052°54'0 0.0 998.6 2.3
2016-Oct-06 18:00N 68°42' W 052°54'0 0.0 997.9 1.8
2016-Oct-06 17:00N 68°42' W 052°54'0 0.0 997.8 1.3
2016-Oct-06 16:00N 68°42' W 052°54'0 0.0 997.5 1.0
2016-Oct-06 15:00N 68°42' W 052°54'0 0.0 997.5 1.8
2016-Oct-06 14:00N 68°42' W 052°54'0 0.0 997.2 1.3
2016-Oct-06 13:00N 68°42' W 052°54'0 0.0 996.8 3.3
2016-Oct-06 12:00N 68°42' W 052°54'0 0.0 996.2 4.5
2016-Oct-06 11:00N 68°42' W 052°54'0 0.0 995.4 3.8
2016-Oct-06 10:00N 68°42' W 052°54'0 0.0 994.8 3.5
2016-Oct-06 09:00N 68°42' W 052°54'0 0.0 994.1 3.0
2016-Oct-06 08:00N 68°42' W 052°54'0 0.0 993.2 3.3
2016-Oct-06 07:00N 68°42' W 052°54'0 0.0 992.6 4.0
2016-Oct-06 06:00N 68°42' W 052°54'0 0.0 991.8 4.0
2016-Oct-06 04:00N 68°42' W 052°54'0 0.0 990.7 4.0
2016-Oct-06 03:00N 68°42' W 052°54'0 0.0 990.2 4.0
2016-Oct-06 02:00N 68°42' W 052°54'0 0.0 990.0 4.0
2016-Oct-06 00:00N 68°42' W 052°54'0 0.0 990.0 4.8
2016-Oct-05 22:00N 68°42' W 052°54'0 0.0 990.8 5.0
2016-Oct-05 20:00N 68°42' W 052°54'0 0.0 991.5 4.8
2016-Oct-05 19:00N 68°42' W 052°54'0 0.0 992.2 4.5
2016-Oct-05 18:00N 68°42' W 052°54'0 0.0 992.7 5.3
2016-Oct-05 17:00N 68°42' W 052°54'0 0.0 993.5 4.5
2016-Oct-05 16:00N 68°42' W 052°54'0 0.0 994.2 5.8
2016-Oct-05 15:00N 68°42' W 052°54'0 0.0 994.6 6.5
2016-Oct-05 14:00N 68°42' W 052°54'0 0.0 995.4 5.8
2016-Oct-05 13:00N 68°42' W 052°54'0 0.0 995.8 6.0
2016-Oct-05 12:00N 68°42' W 052°54'0 0.0 996.2 6.8
2016-Oct-05 10:00N 68°42' W 052°54'0 0.0 996.5 3.5
2016-Oct-05 09:00N 68°42' W 052°54'0 0.0 996.6 3.3
2016-Oct-05 08:00N 68°42' W 052°54'0 0.0 996.6 3.0
2016-Oct-05 07:00N 68°42' W 052°54'0 0.0 996.5 3.5
2016-Oct-05 06:00N 68°42' W 052°54'0 0.0 996.2 3.3
2016-Oct-05 05:00N 68°42' W 052°54'0 0.0 996.1 1.3
2016-Oct-05 03:00N 68°42' W 052°54'0 0.0 995.9 1.0
2016-Oct-04 23:00N 68°42' W 052°54'0 0.0 994.5 2.5
2016-Oct-04 22:00N 68°42' W 052°54'0 0.0 994.4 2.5
2016-Oct-04 21:00N 68°42' W 052°54'6 6.4 994.3 4.3
2016-Oct-04 20:00N 68°48' W 053°00'6 6.0 994.1 3.8
2016-Oct-04 19:00N 68°54' W 053°00'1312.7 994.3 5.3
2016-Oct-04 18:00N 69°06' W 053°12'   994.2 5.5

Dump ship's entire track history